• Join FlightAware (Why Join?)
  • Login
  • US Flag 
09:34AM EST


 

Airport Tracker/Info


-or-


 

Live Flight TrackerFlight Track Log ✈ LAN440 ✈ 05-May-2013 ✈ SABE / AEP - SCEL / SCL

Flight Track Log - Related Links

Times and Time Zones

All times are in EDT time to prevent confusion due to time zone crossing. See the LAN440 flight status page for this flight to view local times or setup timezone preferences in your user account.

Time Position Orientation Groundspeed Altitude Reporting Facility
EDT Latitude Longitude Course Direction KTS MPH feet Rate Location/Type
11:58AM -34.5730 -58.3890 116° Southeast 173 199 1,000  Level FlightAware
11:59AM -34.5740 -58.3840 104° East 177 204 1,200 1,200 Climbing FlightAware
11:59AM -34.5620 -58.3470 69° East 226 260 1,800 1,260 Climbing FlightAware
12:00PM -34.5480 -58.3160 61° Northeast 266 306 2,500 2,400 Climbing FlightAware
12:00PM -34.5260 -58.2810 53° Northeast 280 322 4,000 2,760 Climbing FlightAware
12:00PM -34.5080 -58.2740 18° North 274 315 4,600 2,760 Climbing FlightAware
12:01PM -34.4740 -58.2900 339° North 271 312 6,100 3,120 Climbing FlightAware
12:01PM -34.4660 -58.3030 307° West 269 310 6,700 3,360 Climbing FlightAware
12:01PM -34.4620 -58.3290 281° West 262 302 7,800 3,000 Climbing FlightAware
12:02PM -34.4650 -58.3740 265° West 268 308 9,200 2,520 Climbing FlightAware
12:02PM -34.4700 -58.4360 264° West 289 333 10,800 1,860 Climbing FlightAware
12:03PM -34.4740 -58.4860 264° West 323 372 11,400 1,860 Climbing FlightAware
12:04PM -34.4800 -58.5590 264° West 336 387 13,000 2,520 Climbing FlightAware
12:04PM -34.4860 -58.6300 264° West 344 396 14,600 2,400 Climbing FlightAware
12:05PM -34.4920 -58.6960 264° West 354 407 15,800 2,100 Climbing FlightAware
12:05PM -34.4980 -58.7670 264° West 362 417 17,100 2,400 Climbing FlightAware
12:06PM -34.5050 -58.8360 263° West 360 414 18,600 2,220 Climbing FlightAware
12:07PM -34.5120 -58.9160 264° West 368 423 19,900 2,160 Climbing FlightAware
12:07PM -34.5190 -58.9910 264° West 369 425 21,300 1,980 Climbing FlightAware
12:08PM -34.5240 -59.0520 264° West 376 433 22,100 1,740 Climbing FlightAware
12:08PM -34.5320 -59.1440 264° West 374 430 23,500 1,500 Climbing FlightAware
12:09PM -34.5410 -59.2420 264° West 392 451 24,400 1,440 Climbing FlightAware
12:10PM -34.5470 -59.3110 264° West 393 452 25,300 1,620 Climbing FlightAware
12:11PM -34.5560 -59.4180 264° West 397 457 26,600 1,440 Climbing FlightAware
12:11PM -34.5640 -59.5180 264° West 402 463 27,600 1,200 Climbing FlightAware
12:12PM -34.5700 -59.5980 265° West 412 474 28,200 960 Climbing FlightAware
12:13PM -34.5690 -59.7200 271° West 430 495 29,100 960 Climbing FlightAware
12:13PM -34.5680 -59.7920 271° West 434 499 29,600 960 Climbing FlightAware
12:14PM -34.5650 -59.9380 271° West 441 507 30,600 960 Climbing FlightAware
12:15PM -34.5640 -60.0220 271° West 445 512 31,200 1,260 Climbing FlightAware
12:16PM -34.5610 -60.1350 272° West 442 509 32,300 1,500 Climbing FlightAware
12:16PM -34.5580 -60.2470 272° West 434 499 33,500 1,320 Climbing FlightAware
12:17PM -34.5560 -60.3450 271° West 435 501 34,200 1,200 Climbing FlightAware
12:18PM -34.5540 -60.4570 271° West 428 493 35,200 1,200 Climbing FlightAware
12:18PM -34.5510 -60.5550 272° West 423 487 35,900 540 Climbing FlightAware
12:19PM -34.5490 -60.6520 271° West 423 487 36,000 60 Climbing FlightAware
12:20PM -34.5470 -60.7350 272° West 420 483 36,000  Level FlightAware
12:21PM -34.5440 -60.8470 272° West 423 487 36,000  Level FlightAware
12:21PM -34.5400 -60.9370 273° West 426 490 36,000  Level FlightAware
12:22PM -34.5250 -61.0390 280° West 433 498 36,000  Level FlightAware
12:23PM -34.5070 -61.1600 280° West 432 497 36,000  Level FlightAware
12:24PM -34.4890 -61.2710 281° West 431 496 36,000  Level FlightAware
12:24PM -34.4730 -61.3760 280° West 431 496 36,000  Level FlightAware
12:25PM -34.4560 -61.4840 281° West 432 497 36,000  Level FlightAware
12:26PM -34.4400 -61.5890 280° West 432 497 36,000  Level FlightAware
12:26PM -34.4280 -61.6700 280° West 432 497 36,000  Level FlightAware
12:27PM -34.4160 -61.7510 280° West 432 497 36,000  Level FlightAware
12:28PM -34.4040 -61.8320 280° West 432 497 36,000  Level FlightAware
12:28PM -34.3920 -61.9130 280° West 432 497 36,000  Level FlightAware
12:29PM -34.3840 -61.9740 279° West 432 497 36,000  Level FlightAware
12:30PM -34.3720 -62.0550 280° West 432 497 36,000  Level FlightAware
12:30PM -34.3630 -62.1160 280° West 432 497 36,000  Level FlightAware
12:31PM -34.3540 -62.1770 280° West 432 497 36,000  Level FlightAware
12:31PM -34.3450 -62.2380 280° West 432 497 36,000  Level FlightAware
12:32PM -34.3360 -62.2980 280° West 432 497 36,000  Level FlightAware
12:33PM -34.3190 -62.4200 280° West 432 497 36,000  Level FlightAware
12:33PM -34.3100 -62.4810 280° West 432 497 36,000  Level FlightAware
12:34PM -34.2980 -62.5620 280° West 432 497 36,000  Level FlightAware
12:34PM -34.2890 -62.6230 280° West 432 497 36,000  Level FlightAware
12:35PM -34.2770 -62.7040 280° West 432 497 36,000  Level FlightAware
12:37PM -34.1630 -63.2380 284° West 431 496 36,000  Level FlightAware
12:38PM -34.1490 -63.3200 282° West 431 496 36,000  Level FlightAware
12:39PM -34.1330 -63.4200 281° West 431 496 36,000  Level FlightAware
12:40PM -34.1170 -63.5210 281° West 431 496 36,000  Level FlightAware
12:40PM -34.1040 -63.6010 281° West 431 496 36,000  Level FlightAware
12:41PM -34.0910 -63.6820 281° West 431 496 36,000  Level FlightAware
12:41PM -34.0810 -63.7420 281° West 431 496 36,000  Level FlightAware
12:42PM -34.0290 -63.9320 288° West 440 506 36,000  Level FlightAware
12:43PM -34.0140 -64.0070 284° West 440 506 36,000  Level FlightAware
12:43PM -33.9950 -64.0970 284° West 436 502 36,000  Level FlightAware
12:44PM -33.9770 -64.1920 283° West 436 502 36,000  Level FlightAware
12:45PM -33.9620 -64.2720 283° West 436 502 36,000  Level FlightAware
12:45PM -33.9460 -64.3530 283° West 436 502 36,000  Level FlightAware
12:46PM -33.9350 -64.4130 282° West 436 502 36,000  Level FlightAware
12:47PM -33.9040 -64.5450 286° West 437 503 36,000  Level FlightAware
12:47PM -33.8860 -64.6400 283° West 437 503 36,000  Level FlightAware
12:48PM -33.8600 -64.7570 285° West 440 506 36,000  Level FlightAware
12:49PM -33.8450 -64.8320 284° West 440 506 36,000  Level FlightAware
12:49PM -33.8280 -64.9130 284° West 440 506 36,000  Level FlightAware
12:50PM -33.8070 -65.0140 284° West 440 506 36,000  Level FlightAware
12:53PM -33.7962 -65.2343 273° West  Level Estimated
12:54PM -33.7915 -65.3267 273° West  Level Estimated
12:55PM -33.7868 -65.4191 273° West  Level Estimated
12:55PM -33.6470 -65.7740 273° West 432 497 36,000  Level FlightAware
12:56PM -33.6380 -65.8360 280° West 431 496 36,000  Level FlightAware
12:56PM -33.6260 -65.9160 280° West 431 496 36,000  Level FlightAware
12:57PM -33.6150 -65.9960 279° West 431 496 36,000  Level FlightAware
12:58PM -33.6060 -66.0560 280° West 431 496 36,000  Level FlightAware
12:58PM -33.5940 -66.1360 280° West 431 496 36,000  Level FlightAware
12:59PM -33.5790 -66.2360 280° West 431 496 36,000  Level FlightAware
01:00PM -33.5710 -66.2970 279° West 431 496 36,000  Level FlightAware
01:00PM -33.5590 -66.3770 280° West 431 496 36,000  Level FlightAware
01:01PM -33.5500 -66.4370 280° West 431 496 36,000  Level FlightAware
01:01PM -33.5380 -66.5170 280° West 431 496 36,000  Level FlightAware
01:02PM -33.5260 -66.5970 280° West 431 496 36,000  Level FlightAware
01:03PM -33.5120 -66.6970 280° West 431 496 36,000  Level FlightAware
01:03PM -33.5030 -66.7570 280° West 431 496 36,000  Level FlightAware
01:04PM -33.4940 -66.8170 280° West 431 496 36,000  Level FlightAware
01:04PM -33.4850 -66.8770 280° West 431 496 36,000  Level FlightAware
01:05PM -33.4700 -66.9770 280° West 431 496 36,000 -420 Level FlightAware
01:08PM -33.4688 -67.1891 270° West  Level Estimated
01:09PM -33.4681 -67.2813 270° West  Level Estimated
01:10PM -33.4674 -67.3735 271° West  Level Estimated
01:11PM -33.4666 -67.4657 271° West  Level Estimated
01:12PM -33.4658 -67.5580 271° West  Level Estimated
01:13PM -33.4649 -67.6502 271° West  Level Estimated
01:14PM -33.4639 -67.7424 271° West  Level Estimated
01:15PM -33.4628 -67.8346 271° West  Level Estimated
01:16PM -33.4617 -67.9268 271° West  Level Estimated
01:17PM -33.4605 -68.0190 271° West  Level Estimated
01:18PM -33.4593 -68.1112 271° West  Level Estimated
01:19PM -33.4579 -68.2034 271° West  Level Estimated
01:20PM -33.4565 -68.2955 271° West  Level Estimated
01:21PM -33.4551 -68.3877 271° West  Level Estimated
01:22PM -33.4535 -68.4799 271° West  Level Estimated
01:23PM -33.4519 -68.5721 271° West  Level Estimated
01:24PM -33.4503 -68.6643 271° West  Level Estimated
01:25PM -33.4485 -68.7565 271° West  Level Estimated
01:26PM -33.4467 -68.8486 271° West  Level Estimated
01:26PM -32.8930 -69.9530 271° West 396 456 27,500  Level FlightAware
01:27PM -32.8730 -70.1160 278° West 379 436 24,800 -2,580 Descending FlightAware
01:27PM -32.8670 -70.1800 276° West 378 435 23,500 -1,680 Descending FlightAware
01:28PM -32.8600 -70.2720 275° West 374 430 22,600 -2,220 Descending FlightAware
01:29PM -32.8850 -70.3560 250° West 376 433 20,000 -6,600 Descending FlightAware
01:29PM -32.9160 -70.4000 230° Southwest 388 447 15,500 -4,200 Descending FlightAware
01:30PM -32.9440 -70.4790 247° West 388 447 15,500  Level FlightAware
01:31PM -32.9680 -70.5460 247° West 388 447 15,500  Level FlightAware
01:31PM -32.9860 -70.5960 247° West 388 447 15,500  Level FlightAware
01:32PM -33.0100 -70.6630 247° West 388 447 15,500  Level FlightAware
01:32PM -33.0340 -70.7300 247° West 388 447 15,500  Level FlightAware
01:33PM -33.0580 -70.7970 247° West 388 447 15,500 -4,740 Level FlightAware
01:34PM -33.1750 -70.7810 173° South 4,900 -6,720 Descending FlightAware
01:35PM -33.1920 -70.7930 211° Southwest 214 246 4,900 -360 Level FlightAware
01:35PM -33.2030 -70.7960 193° South 207 238 4,700 -900 Descending FlightAware
01:35PM -33.2200 -70.7950 177° South 197 227 4,400 -900 Descending FlightAware
01:36PM -33.2440 -70.7940 178° South 193 222 3,900 -840 Descending FlightAware
01:36PM -33.2810 -70.7920 177° South 185 213 3,600 -720 Descending FlightAware
01:38PM -33.3440 -70.7880 177° South 150 173 2,300 -780 Descending FlightAware